createdAt,value
2022-11-15T00:00:52.972Z,98696.50
2022-11-15T00:03:25.030Z,98705.22
2022-11-15T00:05:52.014Z,98709.75
2022-11-15T00:08:18.933Z,98709.59
2022-11-15T00:10:58.781Z,98717.59
2022-11-15T00:13:25.885Z,98718.28
2022-11-15T00:15:52.993Z,98710.41
2022-11-15T00:18:19.881Z,98709.75
2022-11-15T00:20:46.653Z,98711.69
2022-11-15T00:23:13.532Z,98707.69
2022-11-15T00:25:40.660Z,98710.72
2022-11-15T00:28:07.735Z,98711.69
2022-11-15T00:30:35.882Z,98707.28
2022-11-15T00:33:06.489Z,98706.06
2022-11-15T00:35:34.693Z,98701.94
2022-11-15T00:38:02.408Z,98703.59
2022-11-15T00:40:29.366Z,98703.06
2022-11-15T00:42:56.846Z,98687.38
2022-11-15T00:45:24.567Z,98698.94
2022-11-15T00:47:51.780Z,98698.66
2022-11-15T00:50:19.237Z,98703.72
2022-11-15T00:52:46.244Z,98713.25
2022-11-15T00:55:17.484Z,98706.34
2022-11-15T00:57:44.311Z,98714.22
2022-11-15T01:00:11.572Z,98722.50
2022-11-15T01:02:38.805Z,98720.88
2022-11-15T01:05:06.361Z,98714.09
2022-11-15T01:07:33.063Z,98707.06
2022-11-15T01:09:59.854Z,98706.25
2022-11-15T01:12:26.530Z,98705.28
2022-11-15T01:14:53.392Z,98717.84
2022-11-15T01:17:20.138Z,98711.94
2022-11-15T01:19:46.798Z,98712.19
2022-11-15T01:22:13.569Z,98711.09
2022-11-15T01:24:40.287Z,98705.16
2022-11-15T01:27:07.194Z,98704.75
2022-11-15T01:29:34.448Z,98701.97
2022-11-15T01:32:01.363Z,98696.34
2022-11-15T01:34:28.294Z,98691.22
2022-11-15T01:36:55.170Z,98688.22
2022-11-15T01:39:21.907Z,98681.06
2022-11-15T01:41:48.817Z,98679.66
2022-11-15T01:44:42.191Z,98683.53
2022-11-15T01:47:42.395Z,98694.56
2022-11-15T01:50:12.257Z,98686.41
2022-11-15T01:52:40.779Z,98684.09
2022-11-15T01:55:24.308Z,98677.59
2022-11-15T01:57:55.149Z,98673.06
2022-11-15T02:00:22.262Z,98679.81
2022-11-15T02:02:49.285Z,98682.44
2022-11-15T02:05:16.588Z,98677.75
2022-11-15T02:07:44.388Z,98673.19
2022-11-15T02:10:14.591Z,98668.78
2022-11-15T02:12:41.994Z,98670.13
2022-11-15T02:15:10.256Z,98662.16
2022-11-15T02:18:09.303Z,98661.63
2022-11-15T02:21:12.258Z,98654.56
2022-11-15T02:24:31.775Z,98654.56
2022-11-15T02:27:21.331Z,98644.53
2022-11-15T02:30:18.430Z,98642.84
2022-11-15T02:33:15.256Z,98640.22
2022-11-15T02:36:08.635Z,98638.41
2022-11-15T02:38:51.184Z,98649.66
2022-11-15T02:41:32.271Z,98645.94
2022-11-15T02:44:03.999Z,98645.50
2022-11-15T02:47:14.271Z,98647.41
2022-11-15T02:49:49.511Z,98653.31
2022-11-15T02:52:20.609Z,98636.81
2022-11-15T02:55:01.208Z,98647.09
2022-11-15T02:58:19.067Z,98646.66
2022-11-15T03:04:01.339Z,98635.34
2022-11-15T03:06:38.802Z,98621.69
2022-11-15T03:09:25.311Z,98623.47
2022-11-15T03:11:57.993Z,98627.16
2022-11-15T03:14:37.936Z,98619.59
2022-11-15T03:17:26.643Z,98625.78
2022-11-15T03:20:05.343Z,98636.34
2022-11-15T03:22:36.587Z,98620.97
2022-11-15T03:25:06.385Z,98616.44
2022-11-15T03:27:39.906Z,98621.16
2022-11-15T03:30:09.140Z,98618.91
2022-11-15T03:32:40.294Z,98620.13
2022-11-15T03:35:29.384Z,98618.91
2022-11-15T03:38:04.537Z,98616.00
2022-11-15T03:40:43.660Z,98614.63
2022-11-15T03:43:48.916Z,98618.50
2022-11-15T03:46:16.239Z,98610.78
2022-11-15T03:48:48.794Z,98612.66
2022-11-15T03:51:16.376Z,98611.94
2022-11-15T03:53:43.349Z,98612.19
2022-11-15T03:56:10.100Z,98610.94
2022-11-15T03:58:36.953Z,98602.06
2022-11-15T04:01:04.330Z,98604.50
2022-11-15T04:03:31.580Z,98606.16
2022-11-15T04:05:58.595Z,98607.84
2022-11-15T04:08:25.494Z,98607.09
2022-11-15T04:10:53.624Z,98605.41
2022-11-15T04:13:21.166Z,98604.56
2022-11-15T04:15:48.269Z,98598.25
2022-11-15T04:18:15.074Z,98603.31
2022-11-15T04:21:00.397Z,98601.38
2022-11-15T04:23:46.633Z,98598.69
2022-11-15T04:26:18.126Z,98594.44
2022-11-15T04:29:03.593Z,98597.38
2022-11-15T04:31:30.796Z,98602.84
2022-11-15T04:33:57.756Z,98592.66
2022-11-15T04:36:43.924Z,98589.88
2022-11-15T04:39:11.095Z,98588.53
2022-11-15T04:41:37.991Z,98594.91
2022-11-15T04:44:04.952Z,98589.69
2022-11-15T04:46:32.242Z,98587.19
2022-11-15T04:48:59.537Z,98584.38
2022-11-15T04:51:26.705Z,98588.09
2022-11-15T04:53:53.604Z,98582.34
2022-11-15T04:56:20.461Z,98586.44
2022-11-15T04:58:50.414Z,98579.38
2022-11-15T05:01:17.909Z,98583.94
2022-11-15T05:04:04.256Z,98583.94
2022-11-15T05:06:31.530Z,98575.13
2022-11-15T05:08:58.713Z,98581.66
2022-11-15T05:11:25.891Z,98586.47
2022-11-15T05:13:52.681Z,98583.59
2022-11-15T05:16:19.616Z,98575.22
2022-11-15T05:18:46.444Z,98581.84
2022-11-15T05:21:15.560Z,98581.16
2022-11-15T05:23:42.791Z,98578.34
2022-11-15T05:26:10.780Z,98580.97
2022-11-15T05:28:38.880Z,98582.50
2022-11-15T05:31:10.329Z,98581.78
2022-11-15T05:33:39.571Z,98574.75
2022-11-15T05:36:18.953Z,98577.81
2022-11-15T05:38:47.139Z,98565.63
2022-11-15T05:41:14.468Z,98578.91
2022-11-15T05:43:42.337Z,98581.97
2022-11-15T05:46:09.644Z,98584.47
2022-11-15T05:48:37.685Z,98584.38
2022-11-15T05:51:06.277Z,98579.69
2022-11-15T05:53:33.742Z,98578.72
2022-11-15T05:56:00.889Z,98583.81
2022-11-15T05:58:27.921Z,98582.41
2022-11-15T06:00:55.557Z,98588.44
2022-11-15T06:03:22.378Z,98585.28
2022-11-15T06:05:49.223Z,98591.16
2022-11-15T06:08:16.828Z,98593.03
2022-11-15T06:10:43.599Z,98598.00
2022-11-15T06:13:10.521Z,98602.34
2022-11-15T06:15:37.304Z,98598.00
2022-11-15T06:18:04.229Z,98599.94
2022-11-15T06:20:31.249Z,98603.75
2022-11-15T06:23:00.037Z,98605.50
2022-11-15T06:25:28.110Z,98605.06
2022-11-15T06:27:55.943Z,98605.44
2022-11-15T06:30:23.719Z,98603.53
2022-11-15T06:32:51.150Z,98600.91
2022-11-15T06:35:18.659Z,98612.06
2022-11-15T06:37:45.531Z,98608.78
2022-11-15T06:40:12.734Z,98600.50
2022-11-15T06:42:39.559Z,98597.31
2022-11-15T06:45:07.299Z,98601.59
2022-11-15T06:47:34.022Z,98597.69
2022-11-15T06:50:00.787Z,98604.81
2022-11-15T06:52:28.028Z,98607.88
2022-11-15T06:54:55.697Z,98615.31
2022-11-15T06:57:22.616Z,98612.59
2022-11-15T06:59:49.354Z,98609.84
2022-11-15T07:02:16.180Z,98608.22
2022-11-15T07:04:43.526Z,98614.00
2022-11-15T07:07:11.359Z,98604.66
2022-11-15T07:09:38.199Z,98614.13
2022-11-15T07:12:07.919Z,98602.28
2022-11-15T07:14:35.032Z,98603.13
2022-11-15T07:17:04.861Z,98603.69
2022-11-15T07:19:31.850Z,98596.44
2022-11-15T07:21:58.866Z,98596.81
2022-11-15T07:24:25.665Z,98598.66
2022-11-15T07:26:52.977Z,98597.16
2022-11-15T07:29:19.964Z,98595.09
2022-11-15T07:31:47.427Z,98601.13
2022-11-15T07:34:14.444Z,98598.84
2022-11-15T07:36:41.627Z,98600.25
2022-11-15T07:39:08.652Z,98606.03
2022-11-15T07:41:36.409Z,98595.19
2022-11-15T07:44:03.815Z,98604.19
2022-11-15T07:46:30.711Z,98606.28
2022-11-15T07:48:57.840Z,98608.81
2022-11-15T07:51:25.010Z,98607.75
2022-11-15T07:53:51.980Z,98605.78
2022-11-15T07:56:18.837Z,98606.66
2022-11-15T07:58:46.985Z,98591.59
2022-11-15T08:01:14.473Z,98600.25
2022-11-15T08:03:41.320Z,98602.34
2022-11-15T08:06:08.384Z,98617.75
2022-11-15T08:08:35.174Z,98619.19
2022-11-15T08:11:02.240Z,98613.00
2022-11-15T08:13:29.313Z,98612.19
2022-11-15T08:16:00.975Z,98610.41
2022-11-15T08:18:27.964Z,98611.22
2022-11-15T08:20:55.108Z,98602.69
2022-11-15T08:23:21.964Z,98594.53
2022-11-15T08:25:48.755Z,98600.19
2022-11-15T08:28:17.648Z,98589.59
2022-11-15T08:30:44.584Z,98592.63
2022-11-15T08:33:13.746Z,98586.00
2022-11-15T08:35:42.949Z,98584.47
2022-11-15T08:38:09.894Z,98585.69
2022-11-15T08:40:36.801Z,98580.16
2022-11-15T08:43:04.090Z,98575.03
2022-11-15T08:45:32.095Z,98568.78
2022-11-15T08:47:59.042Z,98583.66
2022-11-15T08:50:26.098Z,98572.59
2022-11-15T08:52:52.902Z,98560.72
2022-11-15T08:55:22.124Z,98547.31
2022-11-15T08:57:51.209Z,98553.72
2022-11-15T09:00:18.405Z,98551.22
2022-11-15T09:02:45.207Z,98552.34
2022-11-15T09:05:12.196Z,98562.94
2022-11-15T09:07:39.037Z,98552.69
2022-11-15T09:10:06.381Z,98538.88
2022-11-15T09:12:33.424Z,98550.63
2022-11-15T09:15:00.565Z,98543.19
2022-11-15T09:17:27.419Z,98548.16
2022-11-15T09:19:54.213Z,98549.19
2022-11-15T09:22:21.653Z,98536.81
2022-11-15T09:24:48.367Z,98542.16
2022-11-15T09:27:15.210Z,98539.22
2022-11-15T09:29:42.188Z,98534.69
2022-11-15T09:32:09.083Z,98538.91
2022-11-15T09:34:35.991Z,98525.97
2022-11-15T09:37:02.788Z,98531.28
2022-11-15T09:39:29.455Z,98532.81
2022-11-15T09:42:03.976Z,98528.09
2022-11-15T09:45:20.498Z,98522.72
2022-11-15T09:48:04.825Z,98526.56
2022-11-15T09:50:51.625Z,98528.28
2022-11-15T09:54:09.163Z,98515.16
2022-11-15T09:56:22.507Z,98525.19
2022-11-15T09:59:29.298Z,98519.47
2022-11-15T10:02:51.557Z,98515.56
2022-11-15T10:05:22.239Z,98510.38
2022-11-15T10:08:24.483Z,98506.97
2022-11-15T10:11:22.599Z,98511.88
2022-11-15T10:13:48.925Z,98511.72
2022-11-15T10:16:42.170Z,98499.59
2022-11-15T10:19:37.875Z,98500.94
2022-11-15T10:22:23.657Z,98493.88
2022-11-15T10:24:52.104Z,98487.13
2022-11-15T10:27:20.321Z,98492.56
2022-11-15T10:29:49.328Z,98489.13
2022-11-15T10:32:20.047Z,98482.34
2022-11-15T10:34:50.157Z,98486.63
2022-11-15T10:37:29.199Z,98484.47
2022-11-15T10:40:15.303Z,98468.34
2022-11-15T10:42:42.134Z,98471.28
2022-11-15T10:45:31.036Z,98455.81
2022-11-15T10:48:23.894Z,98458.13
2022-11-15T10:50:52.838Z,98453.97
2022-11-15T10:53:34.919Z,98443.75
2022-11-15T10:56:06.330Z,98435.69
2022-11-15T10:58:44.653Z,98439.31
2022-11-15T11:01:33.127Z,98440.59
2022-11-15T11:04:11.906Z,98444.50
2022-11-15T11:06:53.287Z,98436.97
2022-11-15T11:09:40.329Z,98432.81
2022-11-15T11:12:12.244Z,98438.84
2022-11-15T11:14:40.313Z,98433.09
2022-11-15T11:17:36.404Z,98426.19
2022-11-15T11:20:12.219Z,98423.34
2022-11-15T11:23:12.537Z,98424.31
2022-11-15T11:26:38.139Z,98415.25
2022-11-15T11:29:29.494Z,98414.41
2022-11-15T11:32:23.001Z,98412.25
2022-11-15T11:35:02.401Z,98412.03
2022-11-15T11:37:39.245Z,98397.31
2022-11-15T11:40:35.995Z,98396.63
2022-11-15T11:43:33.082Z,98390.47
2022-11-15T11:46:14.844Z,98392.00
2022-11-15T11:49:00.715Z,98393.81
2022-11-15T11:51:38.662Z,98392.88
2022-11-15T11:54:13.402Z,98393.22
2022-11-15T11:56:42.576Z,98386.06
2022-11-15T11:59:48.100Z,98388.66
2022-11-15T12:02:22.585Z,98391.75
2022-11-15T12:04:53.034Z,98383.69
2022-11-15T12:07:30.706Z,98385.31
2022-11-15T12:10:04.720Z,98380.38
2022-11-15T12:12:37.267Z,98376.63
2022-11-15T12:15:19.883Z,98374.16
2022-11-15T12:17:47.368Z,98374.81
2022-11-15T12:20:25.876Z,98370.06
2022-11-15T12:23:06.313Z,98373.25
2022-11-15T12:25:58.111Z,98373.63
2022-11-15T12:29:07.312Z,98364.19
2022-11-15T12:31:40.988Z,98355.66
2022-11-15T12:34:40.591Z,98350.84
2022-11-15T12:38:02.178Z,98358.75
2022-11-15T12:40:35.106Z,98346.38
2022-11-15T12:43:03.532Z,98350.59
2022-11-15T12:45:38.689Z,98343.78
2022-11-15T12:48:38.910Z,98337.78
2022-11-15T12:51:05.991Z,98336.97
2022-11-15T12:53:34.932Z,98332.69
2022-11-15T12:56:17.213Z,98326.28
2022-11-15T12:59:01.134Z,98321.66
2022-11-15T13:01:56.076Z,98317.94
2022-11-15T13:04:27.361Z,98311.19
2022-11-15T13:07:08.789Z,98306.13
2022-11-15T13:09:56.246Z,98309.09
2022-11-15T13:12:50.971Z,98309.09
2022-11-15T13:15:57.391Z,98304.44
2022-11-15T13:18:32.717Z,98299.72
2022-11-15T13:21:02.750Z,98299.38
2022-11-15T13:23:30.276Z,98299.97
2022-11-15T13:26:14.103Z,98297.38
2022-11-15T13:28:46.585Z,98292.28
2022-11-15T13:31:28.566Z,98293.47
2022-11-15T13:34:01.291Z,98284.28
2022-11-15T13:36:35.588Z,98283.16
2022-11-15T13:39:06.506Z,98278.16
2022-11-15T13:41:35.579Z,98269.31
2022-11-15T13:44:03.870Z,98274.06
2022-11-15T13:46:34.660Z,98269.78
2022-11-15T13:49:07.438Z,98266.91
2022-11-15T13:51:44.142Z,98276.38
2022-11-15T13:54:17.186Z,98262.19
2022-11-15T13:56:47.941Z,98265.72
2022-11-15T13:59:35.307Z,98266.53
2022-11-15T14:02:14.295Z,98257.88
2022-11-15T14:05:00.751Z,98261.03
2022-11-15T14:07:31.426Z,98260.91
2022-11-15T14:09:58.334Z,98265.38
2022-11-15T14:12:36.372Z,98255.41
2022-11-15T14:15:26.235Z,98258.03
2022-11-15T14:17:52.988Z,98260.00
2022-11-15T14:20:34.291Z,98261.13
2022-11-15T14:23:04.541Z,98258.47
2022-11-15T14:25:33.703Z,98262.16
2022-11-15T14:28:16.810Z,98245.06
2022-11-15T14:30:48.394Z,98253.78
2022-11-15T14:33:21.251Z,98245.44
2022-11-15T14:35:48.997Z,98241.19
2022-11-15T14:38:15.943Z,98242.53
2022-11-15T14:40:43.378Z,98245.00
2022-11-15T14:43:12.518Z,98240.91
2022-11-15T14:45:39.825Z,98237.25
2022-11-15T14:48:07.152Z,98239.28
2022-11-15T14:50:34.682Z,98235.97
2022-11-15T14:53:01.871Z,98238.97
2022-11-15T14:55:33.146Z,98235.63
2022-11-15T14:58:00.182Z,98233.00
2022-11-15T15:00:30.924Z,98238.44
2022-11-15T15:03:00.968Z,98224.16
2022-11-15T15:05:42.740Z,98225.13
2022-11-15T15:08:11.041Z,98221.22
2022-11-15T15:10:42.110Z,98216.66
2022-11-15T15:13:21.103Z,98208.09
2022-11-15T15:15:49.019Z,98206.59
2022-11-15T15:18:16.760Z,98208.44
2022-11-15T15:20:44.939Z,98215.00
2022-11-15T15:23:21.002Z,98209.41
2022-11-15T15:25:50.310Z,98210.88
2022-11-15T15:28:17.208Z,98208.31
2022-11-15T15:30:44.322Z,98212.56
2022-11-15T15:33:11.027Z,98206.66
2022-11-15T15:35:38.004Z,98203.59
2022-11-15T15:38:04.805Z,98204.78
2022-11-15T15:40:33.729Z,98199.50
2022-11-15T15:43:00.766Z,98195.63
2022-11-15T15:45:28.853Z,98195.34
2022-11-15T15:47:55.889Z,98196.19
2022-11-15T15:50:29.451Z,98189.94
2022-11-15T15:52:58.841Z,98186.00
2022-11-15T15:55:26.250Z,98185.75
2022-11-15T15:57:53.563Z,98183.09
2022-11-15T16:00:21.498Z,98178.69
2022-11-15T16:02:48.372Z,98178.22
2022-11-15T16:05:15.426Z,98181.19
2022-11-15T16:07:44.409Z,98170.19
2022-11-15T16:10:27.564Z,98179.88
2022-11-15T16:12:55.847Z,98182.19
2022-11-15T16:15:24.207Z,98173.50
2022-11-15T16:17:56.381Z,98172.69
2022-11-15T16:20:36.573Z,98175.50
2022-11-15T16:23:09.104Z,98179.16
2022-11-15T16:25:46.647Z,98179.31
2022-11-15T16:28:27.369Z,98180.31
2022-11-15T16:31:07.503Z,98173.09
2022-11-15T16:33:34.644Z,98164.88
2022-11-15T16:36:02.197Z,98158.97
2022-11-15T16:38:29.235Z,98162.47
2022-11-15T16:40:56.295Z,98154.91
2022-11-15T16:43:23.130Z,98160.63
2022-11-15T16:45:51.401Z,98153.06
2022-11-15T16:48:26.663Z,98153.38
2022-11-15T16:50:58.774Z,98153.72
2022-11-15T16:53:27.109Z,98138.28
2022-11-15T16:55:55.422Z,98142.75
2022-11-15T16:58:22.589Z,98131.41
2022-11-15T17:00:53.943Z,98138.66
2022-11-15T17:03:22.041Z,98133.41
2022-11-15T17:05:49.016Z,98133.88
2022-11-15T17:08:15.780Z,98117.94
2022-11-15T17:10:43.234Z,98126.63
2022-11-15T17:13:13.402Z,98121.56
2022-11-15T17:15:40.225Z,98120.88
2022-11-15T17:18:06.992Z,98117.94
2022-11-15T17:20:34.167Z,98116.00
2022-11-15T17:23:00.931Z,98112.41
2022-11-15T17:25:27.665Z,98110.25
2022-11-15T17:27:54.870Z,98101.41
2022-11-15T17:30:21.773Z,98110.13
2022-11-15T17:32:50.064Z,98101.25
2022-11-15T17:35:17.059Z,98103.38
2022-11-15T17:37:44.170Z,98099.94
2022-11-15T17:40:11.811Z,98106.47
2022-11-15T17:42:42.303Z,98105.47
2022-11-15T17:45:11.163Z,98103.81
2022-11-15T17:47:38.095Z,98099.59
2022-11-15T17:50:05.558Z,98088.91
2022-11-15T17:52:32.403Z,98096.19
2022-11-15T17:54:59.295Z,98097.63
2022-11-15T17:57:26.209Z,98089.91
2022-11-15T17:59:53.273Z,98092.06
2022-11-15T18:02:20.160Z,98081.53
2022-11-15T18:04:47.088Z,98085.50
2022-11-15T18:07:14.619Z,98082.16
2022-11-15T18:09:44.427Z,98077.91
2022-11-15T18:12:12.071Z,98071.03
2022-11-15T18:14:39.448Z,98077.97
2022-11-15T18:17:06.423Z,98067.78
2022-11-15T18:19:34.012Z,98072.53
2022-11-15T18:22:01.949Z,98066.25
2022-11-15T18:24:38.645Z,98069.56
2022-11-15T18:27:06.646Z,98070.41
2022-11-15T18:29:35.681Z,98056.47
2022-11-15T18:32:05.251Z,98066.09
2022-11-15T18:34:34.165Z,98065.94
2022-11-15T18:37:03.005Z,98060.56
2022-11-15T18:39:30.673Z,98058.91
2022-11-15T18:41:58.316Z,98050.38
2022-11-15T18:44:25.217Z,98039.22
2022-11-15T18:46:52.357Z,98044.47
2022-11-15T18:49:20.647Z,98044.31
2022-11-15T18:51:48.331Z,98031.53
2022-11-15T18:54:16.944Z,98033.69
2022-11-15T18:56:44.814Z,98024.50
2022-11-15T18:59:11.926Z,98032.66
2022-11-15T19:01:41.551Z,98035.44
2022-11-15T19:04:17.794Z,98028.22
2022-11-15T19:06:49.127Z,98024.09
2022-11-15T19:09:17.870Z,98014.88
2022-11-15T19:11:46.729Z,98013.13
2022-11-15T19:14:15.611Z,98016.53
2022-11-15T19:16:45.261Z,98015.91
2022-11-15T19:19:15.268Z,98023.16
2022-11-15T19:21:42.569Z,98020.69
2022-11-15T19:24:10.704Z,98023.00
2022-11-15T19:26:38.310Z,98014.63
2022-11-15T19:29:06.807Z,98020.38
2022-11-15T19:31:34.334Z,98014.63
2022-11-15T19:34:03.577Z,98014.31
2022-11-15T19:36:35.994Z,98004.13
2022-11-15T19:39:08.468Z,98002.50
2022-11-15T19:41:36.758Z,98004.13
2022-11-15T19:44:04.156Z,98010.69
2022-11-15T19:46:31.204Z,98004.47
2022-11-15T19:48:58.708Z,98007.94
2022-11-15T19:51:27.968Z,98010.72
2022-11-15T19:53:58.841Z,98007.44
2022-11-15T19:56:25.839Z,97999.91
2022-11-15T19:58:54.244Z,98009.72
2022-11-15T20:01:29.560Z,98006.44
2022-11-15T20:03:59.139Z,98004.31
2022-11-15T20:06:29.225Z,98006.09
2022-11-15T20:08:56.950Z,98004.00
2022-11-15T20:11:24.324Z,98004.47
2022-11-15T20:13:51.782Z,98008.91
2022-11-15T20:16:21.152Z,97995.97
2022-11-15T20:18:49.702Z,97995.09
2022-11-15T20:21:17.069Z,97997.44
2022-11-15T20:23:44.039Z,97989.41
2022-11-15T20:26:11.886Z,97989.56
2022-11-15T20:28:40.483Z,97994.31
2022-11-15T20:31:08.286Z,97984.31
2022-11-15T20:33:36.081Z,97988.25
2022-11-15T20:36:07.000Z,97986.63
2022-11-15T20:38:34.884Z,97982.06
2022-11-15T20:41:01.950Z,97975.97
2022-11-15T20:43:29.690Z,97972.38
2022-11-15T20:45:57.023Z,97984.47
2022-11-15T20:48:23.892Z,97974.31
2022-11-15T20:50:50.790Z,97975.94
2022-11-15T20:53:19.734Z,97968.22
2022-11-15T20:55:48.755Z,97963.81
2022-11-15T20:58:17.532Z,97964.81
2022-11-15T21:00:45.994Z,97961.34
2022-11-15T21:03:14.521Z,97955.78
2022-11-15T21:05:42.915Z,97947.44
2022-11-15T21:08:11.108Z,97952.34
2022-11-15T21:10:56.681Z,97946.28
2022-11-15T21:13:23.497Z,97940.19
2022-11-15T21:15:50.292Z,97939.53
2022-11-15T21:18:17.561Z,97939.34
2022-11-15T21:20:44.335Z,97933.75
2022-11-15T21:23:12.432Z,97931.66
2022-11-15T21:25:39.422Z,97935.84
2022-11-15T21:28:06.863Z,97921.56
2022-11-15T21:30:33.820Z,97917.63
2022-11-15T21:33:00.690Z,97920.22
2022-11-15T21:35:27.535Z,97926.47
2022-11-15T21:37:56.971Z,97925.00
2022-11-15T21:40:25.137Z,97921.75
2022-11-15T21:42:52.082Z,97916.53
2022-11-15T21:45:18.788Z,97915.22
2022-11-15T21:47:46.636Z,97915.84
2022-11-15T21:50:14.174Z,97917.00
2022-11-15T21:52:41.966Z,97915.16
2022-11-15T21:55:09.505Z,97916.44
2022-11-15T21:57:36.274Z,97905.25
2022-11-15T22:00:22.722Z,97902.66
2022-11-15T22:02:49.733Z,97911.06
2022-11-15T22:05:16.634Z,97906.75
2022-11-15T22:07:43.748Z,97904.28
2022-11-15T22:10:10.686Z,97902.81
2022-11-15T22:12:37.641Z,97903.75
2022-11-15T22:15:04.646Z,97900.19
2022-11-15T22:17:49.962Z,97900.94
2022-11-15T22:20:43.055Z,97887.19
2022-11-15T22:23:04.219Z,97888.97
2022-11-15T22:25:31.262Z,97895.22
2022-11-15T22:27:58.670Z,97880.31
2022-11-15T22:30:25.666Z,97887.84
2022-11-15T22:32:52.539Z,97873.38
2022-11-15T22:35:20.191Z,97883.88
2022-11-15T22:37:47.034Z,97883.88
2022-11-15T22:40:13.847Z,97876.06
2022-11-15T22:42:40.707Z,97865.56
2022-11-15T22:45:08.143Z,97876.56
2022-11-15T22:47:35.275Z,97857.69
2022-11-15T22:50:02.637Z,97865.94
2022-11-15T22:52:29.894Z,97862.97
2022-11-15T22:54:56.742Z,97846.91
2022-11-15T22:57:24.230Z,97850.81
2022-11-15T22:59:51.130Z,97837.84
2022-11-15T23:02:18.099Z,97844.56
2022-11-15T23:04:45.532Z,97828.78
2022-11-15T23:07:12.709Z,97828.66
2022-11-15T23:09:40.172Z,97822.41
2022-11-15T23:12:26.336Z,97825.19
2022-11-15T23:14:53.244Z,97814.69
2022-11-15T23:17:20.314Z,97818.75
2022-11-15T23:19:47.529Z,97815.34
2022-11-15T23:22:33.567Z,97815.69
2022-11-15T23:25:00.611Z,97801.47
2022-11-15T23:27:27.571Z,97802.16
2022-11-15T23:30:12.705Z,97791.19
2022-11-15T23:32:58.203Z,97791.66
2022-11-15T23:35:25.107Z,97792.81
2022-11-15T23:37:52.190Z,97787.22
2022-11-15T23:40:19.939Z,97783.31
2022-11-15T23:42:46.940Z,97783.75
2022-11-15T23:45:13.698Z,97783.50
2022-11-15T23:47:40.602Z,97783.63
2022-11-15T23:50:08.096Z,97781.63
2022-11-15T23:52:35.756Z,97785.25
2022-11-15T23:55:02.801Z,97777.25
2022-11-15T23:57:29.658Z,97782.34
2022-11-15T23:59:57.718Z,97772.88
